Time;durP1;ratioP1;P1;durP2;ratioP2;P2;SDS_P1;SDS_P2;PMS_P1;PMS_P2;Temp;Humidity;BMP_temperature;BMP_pressure;BME280_temperature;BME280_humidity;BME280_pressure;Samples;Min_cycle;Max_cycle;Signal;HPM_P1;HPM_P2
2022/01/13 00:01:36;;;;;;;65.18;21.13;;;;;;;;;;5059049;28;20081;-65
2022/01/13 00:04:04;;;;;;;64.88;22.02;;;;;;;;;;5051409;28;20471;-65
2022/01/13 00:06:30;;;;;;;67.28;23.30;;;;;;;;;;5060624;28;20033;-65
2022/01/13 00:08:55;;;;;;;60.17;19.02;;;;;;;;;;5071337;28;20464;-65
2022/01/13 00:11:21;;;;;;;69.90;23.00;;;;;;;;;;5044745;28;20029;-66
2022/01/13 00:13:51;;;;;;;66.93;23.20;;;;;;;;;;5051187;28;20047;-65
2022/01/13 00:16:39;;;;;;;64.07;22.85;;;;;;;;;;5051527;28;20037;-65
2022/01/13 00:21:42;;;;;;;77.20;23.42;;;;;;;;;;5070521;28;20488;-65
2022/01/13 00:24:12;;;;;;;63.10;20.15;;;;;;;;;;5062950;28;20029;-65
2022/01/13 00:26:38;;;;;;;82.15;25.05;;;;;;;;;;5052358;28;20041;-65
2022/01/13 00:29:03;;;;;;;77.75;25.17;;;;;;;;;;5070188;28;20028;-65
2022/01/13 00:31:33;;;;;;;88.70;26.38;;;;;;;;;;5055659;28;20029;-65
2022/01/13 00:34:02;;;;;;;85.53;26.35;;;;;;;;;;5055029;28;20039;-65
2022/01/13 00:36:31;;;;;;;72.95;23.33;;;;;;;;;;5059238;28;20042;-65
2022/01/13 00:38:57;;;;;;;75.05;24.25;;;;;;;;;;5071171;28;20062;-65
2022/01/13 00:41:27;;;;;;;97.72;26.88;;;;;;;;;;5060716;28;20102;-65
2022/01/13 00:43:53;;;;;;;86.90;26.17;;;;;;;;;;5066697;28;20081;-65
2022/01/13 00:46:24;;;;;;;79.07;25.23;;;;;;;;;;5060524;28;20051;-64
2022/01/13 00:48:51;;;;;;;84.13;25.25;;;;;;;;;;5050937;28;20379;-65
2022/01/13 00:51:19;;;;;;;90.65;26.95;;;;;;;;;;5042670;28;20047;-65
2022/01/13 00:53:44;;;;;;;85.65;25.67;;;;;;;;;;5053014;28;20040;-65
2022/01/13 00:56:10;;;;;;;73.53;24.52;;;;;;;;;;5051458;28;20430;-65
2022/01/13 00:58:39;;;;;;;78.63;24.17;;;;;;;;;;5048908;28;20390;-65
2022/01/13 01:01:06;;;;;;;65.82;20.13;;;;;;;;;;5044671;28;20052;-65
2022/01/13 01:03:33;;;;;;;68.75;23.20;;;;;;;;;;5052571;28;20033;-65
2022/01/13 01:06:00;;;;;;;68.93;22.88;;;;;;;;;;5051310;28;20082;-65
2022/01/13 01:08:26;;;;;;;75.63;21.95;;;;;;;;;;5035604;28;20028;-65
2022/01/13 01:10:54;;;;;;;70.00;20.73;;;;;;;;;;5046717;28;20422;-65
2022/01/13 01:13:26;;;;;;;75.63;22.67;;;;;;;;;;5042103;28;20040;-65
2022/01/13 01:15:54;;;;;;;70.32;22.38;;;;;;;;;;5040399;28;20037;-65
2022/01/13 01:21:34;;;;;;;63.60;20.02;;;;;;;;;;5049376;28;20044;-65
2022/01/13 01:29:16;;;;;;;74.82;22.52;;;;;;;;;;5041987;28;20429;-65
2022/01/13 01:31:47;;;;;;;73.60;23.13;;;;;;;;;;5052164;28;20463;-65
2022/01/13 01:36:42;;;;;;;78.20;23.10;;;;;;;;;;5050934;28;20040;-65
2022/01/13 01:39:09;;;;;;;69.18;20.38;;;;;;;;;;5039318;28;20060;-65
2022/01/13 01:41:36;;;;;;;61.90;20.13;;;;;;;;;;5042373;28;20501;-65
2022/01/13 01:44:08;;;;;;;74.95;22.75;;;;;;;;;;5043326;28;20151;-65
2022/01/13 01:46:35;;;;;;;64.25;21.50;;;;;;;;;;5042885;28;20417;-65
2022/01/13 01:49:04;;;;;;;70.68;22.23;;;;;;;;;;5052299;28;20078;-64
2022/01/13 01:51:29;;;;;;;64.10;19.50;;;;;;;;;;5035527;28;20064;-64
2022/01/13 01:53:55;;;;;;;60.95;19.63;;;;;;;;;;5051453;28;20056;-64
2022/01/13 01:56:20;;;;;;;73.22;21.90;;;;;;;;;;5052323;28;20126;-64
2022/01/13 01:58:46;;;;;;;69.63;20.05;;;;;;;;;;5048041;28;20037;-65
2022/01/13 02:01:13;;;;;;;61.55;20.55;;;;;;;;;;5050902;28;20029;-65
2022/01/13 02:03:39;;;;;;;66.50;20.60;;;;;;;;;;5049515;28;20037;-65
2022/01/13 02:06:04;;;;;;;69.72;21.75;;;;;;;;;;5052574;28;20032;-65
2022/01/13 02:08:30;;;;;;;60.42;20.15;;;;;;;;;;5045699;28;20061;-66
2022/01/13 02:10:55;;;;;;;56.85;17.63;;;;;;;;;;5033297;28;20045;-66
2022/01/13 02:13:23;;;;;;;73.78;22.80;;;;;;;;;;5040991;28;20052;-65
2022/01/13 02:16:01;;;;;;;70.03;21.35;;;;;;;;;;5046533;28;20071;-65
2022/01/13 02:18:31;;;;;;;74.55;21.70;;;;;;;;;;5032291;28;20033;-65
2022/01/13 02:20:57;;;;;;;73.18;21.70;;;;;;;;;;5042567;28;20037;-66
2022/01/13 02:23:39;;;;;;;73.13;21.08;;;;;;;;;;5048603;28;20052;-66
2022/01/13 02:26:07;;;;;;;74.82;22.55;;;;;;;;;;5049982;28;20390;-65
2022/01/13 02:28:34;;;;;;;77.15;21.63;;;;;;;;;;5034668;28;20086;-66
2022/01/13 02:31:00;;;;;;;65.65;21.65;;;;;;;;;;5035663;28;20025;-65
2022/01/13 02:33:26;;;;;;;66.28;21.27;;;;;;;;;;5055401;28;20054;-65
2022/01/13 02:35:52;;;;;;;72.25;22.42;;;;;;;;;;5069395;28;20106;-65
2022/01/13 02:38:17;;;;;;;74.70;22.67;;;;;;;;;;5047952;28;20103;-65
2022/01/13 02:40:45;;;;;;;59.35;19.63;;;;;;;;;;5049462;28;20029;-65
2022/01/13 02:43:10;;;;;;;71.80;21.45;;;;;;;;;;5042215;28;20040;-65
2022/01/13 02:45:39;;;;;;;75.53;21.15;;;;;;;;;;5052168;28;20371;-65
2022/01/13 02:48:27;;;;;;;65.45;21.10;;;;;;;;;;5062379;28;20028;-65
2022/01/13 02:50:54;;;;;;;76.25;21.02;;;;;;;;;;5043177;28;20036;-65
2022/01/13 02:53:20;;;;;;;70.50;19.13;;;;;;;;;;5051426;28;20056;-66
2022/01/13 02:55:45;;;;;;;80.65;23.95;;;;;;;;;;5043182;28;20463;-65
2022/01/13 02:58:15;;;;;;;77.65;22.00;;;;;;;;;;5049084;28;21009;-65
2022/01/13 03:00:41;;;;;;;60.97;17.63;;;;;;;;;;5050852;28;20118;-65
2022/01/13 03:03:07;;;;;;;68.15;20.85;;;;;;;;;;5035738;28;20036;-65
2022/01/13 03:05:37;;;;;;;75.22;20.45;;;;;;;;;;5050998;28;20532;-66
2022/01/13 03:08:03;;;;;;;59.97;20.37;;;;;;;;;;5048094;28;20037;-66
2022/01/13 03:10:28;;;;;;;77.13;23.27;;;;;;;;;;5050612;28;20029;-65
2022/01/13 03:12:56;;;;;;;55.80;17.58;;;;;;;;;;5057437;28;20025;-65
2022/01/13 03:15:21;;;;;;;61.60;16.83;;;;;;;;;;5037445;28;20052;-65
2022/01/13 03:17:46;;;;;;;60.75;18.33;;;;;;;;;;5051112;28;20033;-65
2022/01/13 03:20:12;;;;;;;78.85;21.38;;;;;;;;;;5062943;28;20032;-65
2022/01/13 03:22:38;;;;;;;81.25;22.80;;;;;;;;;;5050830;28;20057;-66
2022/01/13 03:25:04;;;;;;;59.35;17.88;;;;;;;;;;5042647;28;20382;-66
2022/01/13 03:27:34;;;;;;;80.38;21.70;;;;;;;;;;5047944;28;20044;-65
2022/01/13 03:30:05;;;;;;;69.10;18.40;;;;;;;;;;5032070;28;20029;-65
2022/01/13 03:32:31;;;;;;;51.97;16.05;;;;;;;;;;5047218;28;20029;-65
2022/01/13 03:34:56;;;;;;;69.50;20.92;;;;;;;;;;5043734;28;20529;-65
2022/01/13 03:37:22;;;;;;;89.13;23.48;;;;;;;;;;5044262;28;20091;-65
2022/01/13 03:39:48;;;;;;;79.95;21.60;;;;;;;;;;5049421;28;20032;-65
2022/01/13 03:42:14;;;;;;;88.47;22.88;;;;;;;;;;5046714;28;20104;-65
2022/01/13 03:44:39;;;;;;;91.70;23.52;;;;;;;;;;5032476;28;20114;-65
2022/01/13 03:47:05;;;;;;;62.70;17.65;;;;;;;;;;5039880;28;20090;-65
2022/01/13 03:49:32;;;;;;;87.03;23.40;;;;;;;;;;5050478;28;20040;-65
2022/01/13 03:52:02;;;;;;;87.63;22.83;;;;;;;;;;5045729;28;20029;-65
2022/01/13 03:54:36;;;;;;;90.53;22.65;;;;;;;;;;5042578;28;20112;-66
2022/01/13 03:57:33;;;;;;;79.65;20.33;;;;;;;;;;5046771;28;20033;-65
2022/01/13 04:00:01;;;;;;;69.55;19.02;;;;;;;;;;5045836;28;20037;-65
2022/01/13 04:02:26;;;;;;;64.75;17.85;;;;;;;;;;5047374;28;20617;-65
2022/01/13 04:04:52;;;;;;;67.65;20.35;;;;;;;;;;5047499;28;20021;-65
2022/01/13 04:07:17;;;;;;;88.95;24.27;;;;;;;;;;5050556;28;20033;-65
2022/01/13 04:09:43;;;;;;;95.97;23.30;;;;;;;;;;5046283;28;20533;-65
2022/01/13 04:12:11;;;;;;;81.65;20.60;;;;;;;;;;5035295;28;20037;-65
2022/01/13 04:14:49;;;;;;;65.78;18.50;;;;;;;;;;5043690;28;20098;-65
2022/01/13 04:17:21;;;;;;;95.25;25.23;;;;;;;;;;5049090;28;20112;-65
2022/01/13 04:19:46;;;;;;;66.25;18.50;;;;;;;;;;5048209;28;20045;-66
2022/01/13 04:22:13;;;;;;;116.72;25.98;;;;;;;;;;5051253;28;20094;-65
2022/01/13 04:24:45;;;;;;;71.97;20.58;;;;;;;;;;5034561;28;20040;-65
2022/01/13 04:27:13;;;;;;;94.78;23.65;;;;;;;;;;5049341;28;20390;-65
2022/01/13 04:29:41;;;;;;;99.45;24.42;;;;;;;;;;5059332;28;20025;-65
2022/01/13 04:32:07;;;;;;;88.78;22.63;;;;;;;;;;5045247;28;20029;-65
2022/01/13 04:34:33;;;;;;;110.82;24.45;;;;;;;;;;5056063;28;20039;-65
2022/01/13 04:37:00;;;;;;;101.47;25.88;;;;;;;;;;5054297;28;20033;-65
2022/01/13 04:39:27;;;;;;;96.57;24.00;;;;;;;;;;5038065;28;20399;-65
2022/01/13 04:41:54;;;;;;;97.60;24.20;;;;;;;;;;5044154;28;20033;-65
2022/01/13 04:44:22;;;;;;;85.72;23.45;;;;;;;;;;5047040;28;20395;-65
2022/01/13 04:46:51;;;;;;;93.95;24.10;;;;;;;;;;5033568;28;20042;-65
2022/01/13 04:49:20;;;;;;;96.53;24.45;;;;;;;;;;5048954;28;20033;-65
2022/01/13 04:51:48;;;;;;;90.35;23.02;;;;;;;;;;5034730;28;20110;-65
2022/01/13 04:54:14;;;;;;;77.43;22.50;;;;;;;;;;5046326;28;20037;-65
2022/01/13 04:59:15;;;;;;;92.85;24.90;;;;;;;;;;5039070;28;20037;-65
2022/01/13 05:01:40;;;;;;;91.70;25.23;;;;;;;;;;5037001;28;20029;-65
2022/01/13 05:04:09;;;;;;;111.43;26.80;;;;;;;;;;5057579;28;20086;-65
2022/01/13 05:06:35;;;;;;;109.45;25.73;;;;;;;;;;5055391;28;20463;-65
2022/01/13 05:09:01;;;;;;;89.00;21.10;;;;;;;;;;5053199;28;20405;-65
2022/01/13 05:11:27;;;;;;;107.03;25.17;;;;;;;;;;5052811;28;20043;-65
2022/01/13 05:13:53;;;;;;;77.63;20.65;;;;;;;;;;5039598;28;20054;-66
2022/01/13 05:21:23;;;;;;;82.00;20.52;;;;;;;;;;5046689;28;20033;-65
2022/01/13 05:23:49;;;;;;;73.47;20.55;;;;;;;;;;5052343;28;20057;-65
2022/01/13 05:26:15;;;;;;;94.57;23.65;;;;;;;;;;5058889;28;20472;-65
2022/01/13 05:28:43;;;;;;;65.53;19.55;;;;;;;;;;5051702;28;20033;-65
2022/01/13 05:31:09;;;;;;;84.35;22.25;;;;;;;;;;5041496;28;20033;-65
2022/01/13 05:33:34;;;;;;;98.00;23.55;;;;;;;;;;5042470;28;20119;-65
2022/01/13 05:36:01;;;;;;;86.57;21.77;;;;;;;;;;5050637;28;20887;-65
2022/01/13 05:38:27;;;;;;;80.82;22.65;;;;;;;;;;5049978;28;20042;-65
2022/01/13 05:40:53;;;;;;;84.82;23.08;;;;;;;;;;5035184;28;20036;-65
2022/01/13 05:43:19;;;;;;;104.82;25.67;;;;;;;;;;5063378;28;20127;-65
2022/01/13 05:45:45;;;;;;;99.93;26.25;;;;;;;;;;5044698;28;20032;-65
2022/01/13 05:48:11;;;;;;;90.47;25.70;;;;;;;;;;5052639;28;20455;-65
2022/01/13 05:50:37;;;;;;;99.07;26.80;;;;;;;;;;5052219;28;20043;-65
2022/01/13 05:53:04;;;;;;;92.90;26.40;;;;;;;;;;5050825;28;20037;-65
2022/01/13 05:55:30;;;;;;;103.55;26.98;;;;;;;;;;5052469;28;20044;-65
2022/01/13 05:57:55;;;;;;;104.45;27.38;;;;;;;;;;5048482;28;20033;-66
2022/01/13 06:00:22;;;;;;;97.38;27.30;;;;;;;;;;5039468;28;20040;-65
2022/01/13 06:02:48;;;;;;;110.03;28.92;;;;;;;;;;5047623;28;20029;-65
2022/01/13 06:05:14;;;;;;;113.43;29.85;;;;;;;;;;5051333;28;20029;-65
2022/01/13 06:07:39;;;;;;;93.00;24.52;;;;;;;;;;5047934;28;20059;-65
2022/01/13 06:10:09;;;;;;;101.40;28.67;;;;;;;;;;5054616;28;20033;-65
2022/01/13 06:12:37;;;;;;;94.38;26.40;;;;;;;;;;5048899;28;20400;-65
2022/01/13 06:15:14;;;;;;;102.68;27.58;;;;;;;;;;5047345;28;20036;-65
2022/01/13 06:17:41;;;;;;;99.35;26.75;;;;;;;;;;5054727;28;20036;-65
2022/01/13 06:20:08;;;;;;;88.60;26.08;;;;;;;;;;5065471;28;20033;-64
2022/01/13 06:22:36;;;;;;;82.90;25.50;;;;;;;;;;5058421;28;20125;-64
2022/01/13 06:25:03;;;;;;;91.78;27.23;;;;;;;;;;5063007;28;20123;-64
2022/01/13 06:27:29;;;;;;;84.18;25.13;;;;;;;;;;5053027;28;20032;-64
2022/01/13 06:29:54;;;;;;;100.82;27.85;;;;;;;;;;5042113;28;20060;-65
2022/01/13 06:32:20;;;;;;;98.38;25.35;;;;;;;;;;5034890;28;20040;-68
2022/01/13 06:34:49;;;;;;;109.63;26.92;;;;;;;;;;5051980;28;20124;-66
2022/01/13 06:37:18;;;;;;;104.47;27.40;;;;;;;;;;5052178;28;20033;-67
2022/01/13 06:39:44;;;;;;;84.18;23.55;;;;;;;;;;5051151;28;20382;-65
2022/01/13 06:42:10;;;;;;;98.72;26.65;;;;;;;;;;5052282;28;20036;-67
2022/01/13 06:44:35;;;;;;;89.68;23.27;;;;;;;;;;5032293;28;20033;-67
2022/01/13 06:47:01;;;;;;;93.80;23.63;;;;;;;;;;5031590;28;20048;-66
2022/01/13 06:49:27;;;;;;;90.97;26.13;;;;;;;;;;5064971;28;20441;-66
2022/01/13 06:51:53;;;;;;;97.50;26.33;;;;;;;;;;5065022;28;20462;-64
2022/01/13 06:54:18;;;;;;;107.20;27.65;;;;;;;;;;5069463;28;20086;-64
2022/01/13 06:56:44;;;;;;;89.50;25.45;;;;;;;;;;5071621;28;20071;-65
2022/01/13 06:59:11;;;;;;;98.68;27.95;;;;;;;;;;5070814;28;20040;-67
2022/01/13 07:01:38;;;;;;;71.45;21.25;;;;;;;;;;5070607;28;20067;-66
2022/01/13 07:04:03;;;;;;;93.00;26.98;;;;;;;;;;5055881;28;20029;-66
2022/01/13 07:06:29;;;;;;;92.38;24.58;;;;;;;;;;5055480;28;20040;-66
2022/01/13 07:08:54;;;;;;;74.25;23.98;;;;;;;;;;5041645;28;20029;-66
2022/01/13 07:11:20;;;;;;;102.47;27.45;;;;;;;;;;5057362;28;20046;-65
2022/01/13 07:13:45;;;;;;;64.38;19.50;;;;;;;;;;5050206;28;20122;-65
2022/01/13 07:16:11;;;;;;;69.47;19.45;;;;;;;;;;5051421;28;20047;-66
2022/01/13 07:18:40;;;;;;;81.15;22.88;;;;;;;;;;5051839;28;20048;-67
2022/01/13 07:21:08;;;;;;;82.82;21.85;;;;;;;;;;5051676;28;20020;-68
2022/01/13 07:23:33;;;;;;;102.47;27.67;;;;;;;;;;5049592;28;20048;-67
2022/01/13 07:25:59;;;;;;;97.75;26.33;;;;;;;;;;5060537;28;20412;-67
2022/01/13 07:28:25;;;;;;;92.00;25.60;;;;;;;;;;5062544;28;20480;-67
2022/01/13 07:30:50;;;;;;;113.55;29.30;;;;;;;;;;5049382;28;20041;-67
2022/01/13 07:33:16;;;;;;;96.57;27.90;;;;;;;;;;5050743;28;20021;-67
2022/01/13 07:35:42;;;;;;;92.45;23.48;;;;;;;;;;5051371;28;20029;-66
2022/01/13 07:38:07;;;;;;;100.28;26.83;;;;;;;;;;5054038;28;20353;-72
2022/01/13 07:40:33;;;;;;;99.47;25.13;;;;;;;;;;5059534;28;20449;-64
2022/01/13 07:42:58;;;;;;;100.18;22.73;;;;;;;;;;5032987;28;20032;-66
2022/01/13 07:45:23;;;;;;;95.70;23.25;;;;;;;;;;5053133;28;20035;-66
2022/01/13 07:47:49;;;;;;;121.80;29.02;;;;;;;;;;5063659;28;20044;-67
2022/01/13 07:50:15;;;;;;;128.65;29.42;;;;;;;;;;5051877;28;20025;-67
2022/01/13 07:52:42;;;;;;;133.93;29.02;;;;;;;;;;5050335;28;20029;-68
2022/01/13 07:55:08;;;;;;;152.02;31.85;;;;;;;;;;5044535;28;20039;-67
2022/01/13 07:57:34;;;;;;;122.95;28.13;;;;;;;;;;5049273;28;20059;-67
2022/01/13 07:59:59;;;;;;;129.40;27.40;;;;;;;;;;5050133;28;20364;-66
2022/01/13 08:02:25;;;;;;;126.25;28.48;;;;;;;;;;5073721;28;20467;-68
2022/01/13 08:04:50;;;;;;;132.18;28.58;;;;;;;;;;5055163;28;20033;-68
2022/01/13 08:07:16;;;;;;;136.43;29.85;;;;;;;;;;5072374;28;20037;-67
2022/01/13 08:09:42;;;;;;;132.02;28.70;;;;;;;;;;5069289;28;20116;-66
2022/01/13 08:12:08;;;;;;;122.75;28.00;;;;;;;;;;5046632;28;20112;-67
2022/01/13 08:14:33;;;;;;;143.45;31.48;;;;;;;;;;5034980;28;20057;-67
2022/01/13 08:17:00;;;;;;;104.88;24.13;;;;;;;;;;5047761;28;20059;-64
2022/01/13 08:22:11;;;;;;;100.28;23.65;;;;;;;;;;5051267;28;20043;-66
2022/01/13 08:24:36;;;;;;;123.00;25.00;;;;;;;;;;5056536;28;20029;-66
2022/01/13 08:27:02;;;;;;;91.38;24.60;;;;;;;;;;5053893;28;20051;-67
2022/01/13 08:29:27;;;;;;;128.07;27.55;;;;;;;;;;5059078;28;20040;-66
2022/01/13 08:31:53;;;;;;;102.82;23.50;;;;;;;;;;5032565;28;20075;-65
2022/01/13 08:34:18;;;;;;;150.30;31.50;;;;;;;;;;5061642;28;20028;-63
2022/01/13 08:36:44;;;;;;;105.88;23.65;;;;;;;;;;5061374;28;20386;-65
2022/01/13 08:39:10;;;;;;;160.52;33.00;;;;;;;;;;5053840;28;20044;-64
2022/01/13 08:41:36;;;;;;;145.32;28.48;;;;;;;;;;5052425;28;20033;-65
2022/01/13 08:44:01;;;;;;;109.28;24.67;;;;;;;;;;5053759;28;20033;-66
2022/01/13 08:46:27;;;;;;;174.10;32.72;;;;;;;;;;5061039;28;20055;-65
2022/01/13 08:48:53;;;;;;;150.30;29.45;;;;;;;;;;5048796;28;20025;-66
2022/01/13 08:51:19;;;;;;;136.15;25.25;;;;;;;;;;5049960;28;20032;-66
2022/01/13 08:53:45;;;;;;;90.50;21.48;;;;;;;;;;5074603;28;20382;-64
2022/01/13 08:56:11;;;;;;;105.95;23.23;;;;;;;;;;5071943;28;20024;-63
2022/01/13 08:58:37;;;;;;;117.65;25.25;;;;;;;;;;5056806;28;20037;-65
2022/01/13 09:01:03;;;;;;;82.20;22.00;;;;;;;;;;5054770;28;20059;-65
2022/01/13 09:03:28;;;;;;;136.65;28.48;;;;;;;;;;5054251;28;20029;-67
2022/01/13 09:05:54;;;;;;;69.10;19.58;;;;;;;;;;5052343;28;20025;-64
2022/01/13 09:08:19;;;;;;;119.22;25.65;;;;;;;;;;5054392;28;20083;-67
2022/01/13 09:10:45;;;;;;;140.93;29.08;;;;;;;;;;5084091;28;20127;-67
2022/01/13 09:13:15;;;;;;;118.00;27.95;;;;;;;;;;5054124;28;20586;-69
2022/01/13 09:15:46;;;;;;;125.63;28.17;;;;;;;;;;5061619;28;20079;-68
2022/01/13 09:18:18;;;;;;;114.25;25.90;;;;;;;;;;5066369;28;20025;-66
2022/01/13 09:20:45;;;;;;;94.18;22.58;;;;;;;;;;5047891;28;20474;-64
2022/01/13 09:23:11;;;;;;;120.40;27.52;;;;;;;;;;5058022;28;20107;-64
2022/01/13 09:25:37;;;;;;;111.75;26.05;;;;;;;;;;5072764;28;20127;-67
2022/01/13 09:28:05;;;;;;;132.68;28.45;;;;;;;;;;5066442;28;20110;-66
2022/01/13 09:30:31;;;;;;;92.70;21.50;;;;;;;;;;5055399;28;20120;-66
2022/01/13 09:32:56;;;;;;;80.50;20.42;;;;;;;;;;5063500;28;20112;-67
2022/01/13 09:35:22;;;;;;;130.63;27.77;;;;;;;;;;5073747;28;20033;-67
2022/01/13 09:37:48;;;;;;;129.45;28.27;;;;;;;;;;5064748;28;20040;-65
2022/01/13 09:40:13;;;;;;;137.10;32.05;;;;;;;;;;5053848;28;20037;-67
2022/01/13 09:42:42;;;;;;;114.13;26.92;;;;;;;;;;5051553;28;20514;-66
2022/01/13 09:45:08;;;;;;;117.88;26.70;;;;;;;;;;5042978;28;20044;-64
2022/01/13 09:47:37;;;;;;;114.85;27.83;;;;;;;;;;5033968;28;20383;-66
2022/01/13 09:50:09;;;;;;;90.35;24.42;;;;;;;;;;5044313;28;20530;-66
2022/01/13 09:52:35;;;;;;;84.72;22.30;;;;;;;;;;5053258;28;20363;-66
2022/01/13 09:55:00;;;;;;;60.75;18.15;;;;;;;;;;5051831;28;20040;-65
2022/01/13 09:57:25;;;;;;;115.75;27.80;;;;;;;;;;5061597;28;20517;-65
2022/01/13 09:59:51;;;;;;;110.53;27.05;;;;;;;;;;5052199;28;20030;-67
2022/01/13 10:02:16;;;;;;;112.20;27.88;;;;;;;;;;5042621;28;20433;-65
2022/01/13 10:04:47;;;;;;;120.88;28.98;;;;;;;;;;5048277;28;20059;-64
2022/01/13 10:07:17;;;;;;;115.63;27.80;;;;;;;;;;5055365;28;20151;-64
2022/01/13 10:09:54;;;;;;;106.25;26.95;;;;;;;;;;5053175;28;20127;-66
2022/01/13 10:12:31;;;;;;;105.70;30.33;;;;;;;;;;5052462;28;20037;-66
2022/01/13 10:17:28;;;;;;;129.50;30.05;;;;;;;;;;5072094;28;20113;-67
2022/01/13 10:19:57;;;;;;;130.10;32.80;;;;;;;;;;5071782;28;20099;-67
2022/01/13 10:22:30;;;;;;;132.20;34.88;;;;;;;;;;5067738;28;20033;-68
2022/01/13 10:24:58;;;;;;;121.10;33.33;;;;;;;;;;5056069;28;20078;-65
2022/01/13 10:27:34;;;;;;;140.52;33.50;;;;;;;;;;5053927;28;20036;-66
2022/01/13 10:30:05;;;;;;;124.05;31.58;;;;;;;;;;5050645;28;20115;-65
2022/01/13 10:32:36;;;;;;;114.25;30.58;;;;;;;;;;5066127;28;20041;-65
2022/01/13 10:35:06;;;;;;;;;;;;;;;;;;5061742;28;20024;-64
2022/01/13 10:37:35;;;;;;;101.53;25.65;;;;;;;;;;5061867;28;19959;-66
2022/01/13 10:40:10;;;;;;;113.82;29.40;;;;;;;;;;5053088;28;20024;-66
2022/01/13 10:43:06;;;;;;;116.78;31.13;;;;;;;;;;5072324;28;20103;-66
2022/01/13 10:45:58;;;;;;;100.60;29.33;;;;;;;;;;5071649;28;20120;-66
2022/01/13 10:48:27;;;;;;;126.82;32.70;;;;;;;;;;5053913;28;20553;-63
2022/01/13 10:50:59;;;;;;;148.00;35.15;;;;;;;;;;5050861;28;20033;-66
2022/01/13 10:53:27;;;;;;;137.85;34.53;;;;;;;;;;5043394;28;20390;-67
2022/01/13 10:55:57;;;;;;;132.15;34.35;;;;;;;;;;5060286;28;20032;-67
2022/01/13 10:58:26;;;;;;;125.53;32.28;;;;;;;;;;5064661;28;20099;-66
2022/01/13 11:00:53;;;;;;;113.97;29.98;;;;;;;;;;5052507;28;20470;-66
2022/01/13 11:03:21;;;;;;;115.03;30.75;;;;;;;;;;5050957;28;20036;-66
2022/01/13 11:05:59;;;;;;;118.75;32.13;;;;;;;;;;5061309;28;20028;-66
2022/01/13 11:08:38;;;;;;;122.10;33.28;;;;;;;;;;5070718;28;20032;-66
2022/01/13 11:11:04;;;;;;;122.35;32.63;;;;;;;;;;5069918;28;20470;-66
2022/01/13 11:13:35;;;;;;;119.15;31.25;;;;;;;;;;5071722;28;20036;-67
2022/01/13 11:16:01;;;;;;;89.93;25.58;;;;;;;;;;5059761;28;20041;-67
2022/01/13 11:18:28;;;;;;;107.20;26.08;;;;;;;;;;5034091;28;20398;-67
2022/01/13 11:20:55;;;;;;;90.07;24.15;;;;;;;;;;5045133;28;20056;-64
2022/01/13 11:23:21;;;;;;;97.07;26.38;;;;;;;;;;5036088;28;20036;-64
2022/01/13 11:25:51;;;;;;;108.43;29.52;;;;;;;;;;5043686;28;20029;-64
2022/01/13 11:28:16;;;;;;;105.57;28.55;;;;;;;;;;5050493;28;20039;-67
2022/01/13 11:30:42;;;;;;;84.25;23.20;;;;;;;;;;5050609;28;20392;-66
2022/01/13 11:33:08;;;;;;;109.78;27.30;;;;;;;;;;5038376;28;20046;-65
2022/01/13 11:35:45;;;;;;;100.85;25.58;;;;;;;;;;5041093;28;20040;-67
2022/01/13 11:38:13;;;;;;;101.70;28.23;;;;;;;;;;5050862;28;20524;-64
2022/01/13 11:40:41;;;;;;;72.53;20.52;;;;;;;;;;5043319;28;20067;-63
2022/01/13 11:43:27;;;;;;;50.40;17.20;;;;;;;;;;5070145;28;20470;-67
2022/01/13 11:45:52;;;;;;;83.78;20.90;;;;;;;;;;5048026;28;20029;-65
2022/01/13 11:48:20;;;;;;;96.60;27.08;;;;;;;;;;5047239;28;20051;-65
2022/01/13 11:50:50;;;;;;;94.45;26.77;;;;;;;;;;5045418;28;20057;-66
2022/01/13 11:53:31;;;;;;;87.95;24.25;;;;;;;;;;5047106;28;20029;-69
2022/01/13 11:55:58;;;;;;;81.07;21.92;;;;;;;;;;5052478;28;20033;-66
2022/01/13 11:58:31;;;;;;;90.97;24.75;;;;;;;;;;5052494;28;20035;-69
2022/01/13 12:01:06;;;;;;;76.20;24.38;;;;;;;;;;5050856;28;20497;-67
2022/01/13 12:03:34;;;;;;;101.55;26.90;;;;;;;;;;5051412;28;20029;-68
2022/01/13 12:06:01;;;;;;;68.70;21.80;;;;;;;;;;5050361;28;20025;-65
2022/01/13 12:08:38;;;;;;;77.47;21.50;;;;;;;;;;5050711;28;20029;-67
2022/01/13 12:11:04;;;;;;;73.85;21.25;;;;;;;;;;5050446;28;20029;-67
2022/01/13 12:13:31;;;;;;;76.45;24.73;;;;;;;;;;5065443;28;20067;-67
2022/01/13 12:15:57;;;;;;;88.10;24.48;;;;;;;;;;5068535;28;20024;-66
2022/01/13 12:18:48;;;;;;;58.20;20.17;;;;;;;;;;5062402;28;20056;-66
2022/01/13 12:21:36;;;;;;;65.10;20.20;;;;;;;;;;5051024;28;20033;-66
2022/01/13 12:24:06;;;;;;;69.13;22.40;;;;;;;;;;5063317;28;20124;-68
2022/01/13 12:26:34;;;;;;;65.70;22.40;;;;;;;;;;5065374;28;20064;-68
2022/01/13 12:29:23;;;;;;;80.18;26.52;;;;;;;;;;5047569;28;20044;-67
2022/01/13 12:31:54;;;;;;;73.90;23.20;;;;;;;;;;5041014;28;20103;-68
2022/01/13 12:34:21;;;;;;;78.95;23.60;;;;;;;;;;5071133;28;20029;-68
2022/01/13 12:36:46;;;;;;;68.45;21.50;;;;;;;;;;5051522;28;20033;-69
2022/01/13 12:39:14;;;;;;;47.83;17.83;;;;;;;;;;5050072;28;20043;-67
2022/01/13 12:41:59;;;;;;;83.82;25.45;;;;;;;;;;5052142;28;20035;-67
2022/01/13 12:47:11;;;;;;;79.45;26.40;;;;;;;;;;5039244;28;20039;-67
2022/01/13 12:49:38;;;;;;;81.28;27.50;;;;;;;;;;5055088;28;20494;-66
2022/01/13 12:52:07;;;;;;;62.63;24.35;;;;;;;;;;5052692;28;20036;-66
2022/01/13 12:54:33;;;;;;;67.53;23.92;;;;;;;;;;5059740;28;20036;-64
2022/01/13 12:57:06;;;;;;;64.85;23.92;;;;;;;;;;5061862;28;20043;-65
2022/01/13 12:59:33;;;;;;;63.40;23.88;;;;;;;;;;5054609;28;20036;-67
2022/01/13 13:02:00;;;;;;;62.90;24.27;;;;;;;;;;5036465;28;20060;-69
2022/01/13 13:04:29;;;;;;;61.35;24.23;;;;;;;;;;5054248;28;20106;-67
2022/01/13 13:06:55;;;;;;;64.78;25.35;;;;;;;;;;5033362;28;20057;-65
2022/01/13 13:09:23;;;;;;;63.95;23.95;;;;;;;;;;5052204;28;20071;-68
2022/01/13 13:11:52;;;;;;;65.70;24.85;;;;;;;;;;5053749;28;20036;-65
2022/01/13 13:17:32;;;;;;;65.15;25.33;;;;;;;;;;5057374;28;20051;-69
2022/01/13 13:19:58;;;;;;;71.00;27.08;;;;;;;;;;5073373;28;20035;-66
2022/01/13 13:22:23;;;;;;;63.67;26.50;;;;;;;;;;5069209;28;20367;-67
2022/01/13 13:24:49;;;;;;;63.78;25.15;;;;;;;;;;5047862;28;20057;-67
2022/01/13 13:27:27;;;;;;;67.63;26.15;;;;;;;;;;5039565;28;20036;-66
2022/01/13 13:29:52;;;;;;;61.83;25.17;;;;;;;;;;5056100;28;20121;-67
2022/01/13 13:32:19;;;;;;;69.32;27.17;;;;;;;;;;5046801;28;20457;-65
2022/01/13 13:34:44;;;;;;;62.78;25.38;;;;;;;;;;5038383;28;20025;-65
2022/01/13 13:37:13;;;;;;;66.93;26.92;;;;;;;;;;5052776;28;20214;-65
2022/01/13 13:39:38;;;;;;;64.22;25.27;;;;;;;;;;5056333;28;20032;-67
2022/01/13 13:42:05;;;;;;;64.68;26.20;;;;;;;;;;5072795;28;20028;-66
2022/01/13 13:44:34;;;;;;;63.70;24.55;;;;;;;;;;5035265;28;20398;-65
2022/01/13 13:47:03;;;;;;;64.57;25.80;;;;;;;;;;5032879;28;20037;-69
2022/01/13 13:49:30;;;;;;;67.80;25.75;;;;;;;;;;5069388;28;20119;-64
2022/01/13 13:51:58;;;;;;;64.72;25.55;;;;;;;;;;5072713;28;20029;-64
2022/01/13 13:54:27;;;;;;;72.13;26.33;;;;;;;;;;5054209;28;20434;-67
2022/01/13 13:57:03;;;;;;;59.53;24.05;;;;;;;;;;5051361;28;20021;-65
2022/01/13 13:59:41;;;;;;;58.38;23.13;;;;;;;;;;5051833;28;20032;-66
2022/01/13 14:02:32;;;;;;;54.13;21.65;;;;;;;;;;5055489;28;20036;-64
2022/01/13 14:05:00;;;;;;;54.00;21.90;;;;;;;;;;5052575;28;20099;-64
2022/01/13 14:07:28;;;;;;;53.05;20.77;;;;;;;;;;5060387;28;20048;-66
2022/01/13 14:10:01;;;;;;;59.80;22.50;;;;;;;;;;5064002;28;20053;-69
2022/01/13 14:12:32;;;;;;;53.92;20.23;;;;;;;;;;5058620;28;20029;-67
2022/01/13 14:15:16;;;;;;;56.70;20.02;;;;;;;;;;5049785;28;20087;-67
2022/01/13 14:17:42;;;;;;;45.83;18.27;;;;;;;;;;5052740;28;20036;-66
2022/01/13 14:20:14;;;;;;;49.67;18.70;;;;;;;;;;5058709;28;20120;-68
2022/01/13 14:22:40;;;;;;;49.47;19.38;;;;;;;;;;5054026;28;20094;-66
2022/01/13 14:25:14;;;;;;;51.40;17.55;;;;;;;;;;5047116;28;20053;-66
2022/01/13 14:27:57;;;;;;;43.85;19.00;;;;;;;;;;5051541;28;20033;-69
2022/01/13 14:30:40;;;;;;;55.40;20.77;;;;;;;;;;5053559;28;20099;-67
2022/01/13 14:33:25;;;;;;;53.60;21.27;;;;;;;;;;5052082;28;20052;-68
2022/01/13 14:36:20;;;;;;;49.25;19.73;;;;;;;;;;5052282;28;20086;-64
2022/01/13 14:39:06;;;;;;;50.42;17.77;;;;;;;;;;5052794;28;20060;-64
2022/01/13 14:41:33;;;;;;;59.88;20.45;;;;;;;;;;5068800;28;20058;-66
2022/01/13 14:44:07;;;;;;;51.50;20.52;;;;;;;;;;5066629;28;20048;-65
2022/01/13 14:46:39;;;;;;;50.33;19.70;;;;;;;;;;5052599;28;20059;-65
2022/01/13 14:49:06;;;;;;;55.22;20.58;;;;;;;;;;5066308;28;20044;-67
2022/01/13 14:51:33;;;;;;;51.10;20.80;;;;;;;;;;5071840;28;20032;-65
2022/01/13 14:54:00;;;;;;;50.47;20.52;;;;;;;;;;5057604;28;20047;-67